Evansville, Mississippi
Current Conditions -  °F | °C
As of 6:15 AM on Monday 22 Dec 2014 (Local Time) from KUTA Reporting Station
Haze Haze  
Wind Chill: 50°   Ceiling: 500
Heat Index: 50°   Visibility: 4mi
Dew Point: 48°   Wind: 10mph
Humidity: 94%   Direction: 150°SSE
Pressure: 29.85"   Gusts: NA
Location:  34.6827°N, 90.3615°W
Report Text: KUTA 221215Z AUTO 15009KT 4SM BR OVC005 10/09 A2985 RMK AO2
Loading
Personal Weather Stations






























Interactive Weather Map New forecast layout! Learn more

10-Day Weather Forecast

Advertisements
Track Severe Weather on mobile